Aurora, IL

9:18 AM CST on January 16, 2017 (GMT -0600)
Fox Valley Farms, Inc | | Change Station
Active Advisory: Winter Weather Advisory

Elev 732 ft 41.81 °N, 88.27 °W | Updated 17 minutes ago

Rain
Rain
32.2 °F
Feels Like 27 °F
N
5.0
Wind Variable Wind from East

Today
High -- | Low -- °F
--% Chance of Precip.
Yesterday
High -- | Low -- °F
Precip. -- in
Pressure 30.22 in
Visibility 2.0 miles
Clouds Mostly Cloudy 700 ft
Mostly Cloudy 1200 ft
Overcast 2300 ft
Windchill 27 °F
Dew Point 31 °F
Humidity 98%
Rainfall 0.07 in
Snow Depth Not available.
7:17 AM 4:48 PM
Waning Gibbous, 80% visible
SPECI KDPA 161500Z 11004KT 2SM -RA BR BKN007 BKN012 OVC023 01/M01 A3022 RMK AO2 P0000 T00061011
Pressure 30.22 in
Visibility 2.0 miles
Clouds Mostly Cloudy 700 ft
Mostly Cloudy 1200 ft
Overcast 2300 ft
Windchill 27 °F
Dew Point 31 °F
Humidity 98%
Rainfall 0.07 in
Snow Depth Not available.
7:17 AM 4:48 PM
Waning Gibbous, 80% visible
SPECI KDPA 161500Z 11004KT 2SM -RA BR BKN007 BKN012 OVC023 01/M01 A3022 RMK AO2 P0000 T00061011

Get Your Daily Forecast Email!

Thanks for signing up!

Be on the lookout for a verification email in your inbox.

You'll start receiving the daily forecast at 8 AM.

×

10-Day Weather Forecast

Almanac

Astronomy

Jan. 16, 2017 Rise Set
Actual Time
Civil Twilight
Nautical Twilight
Astronomical Twilight
Moon
Length of Visible Light
Length of Day
Tomorrow will be .
, % of the Moon is Illuminated

Today's Extremes

State Highs State Lows

Community

WunderPhotos

Upload Photos

1,962,540 photos uploaded!

WunderBlog® & News

Nearby

Air Quality

  Air Quality AQ Index Pollutant
Not available.

Snow Depth

Station Depth Elevation

Earthquake Activity

City Distance Mag. Time & Date
Minimum magnitude displayed is 2.5.

Coastal Water Temperatures

Place Temperature

Stations

Nearby Weather Stations

Station Location Temp. Windchill Dew Point Humidity Wind Precip. Elev Updated Type
                   

Watches & Warnings

Winter Weather Advisory
Issued: 3:27 AM CST Jan. 16, 2017 – National Weather Service

... Winter Weather Advisory remains in effect until noon CST
today...

* timing... freezing rain... mixed with sleet... will spread
northeast this morning. Precipitation should transition to all
rain by around noon.

* Main impact... ice accumulation up to a tenth of an inch mixed
with light sleet accumulations.

* Other impacts... accumulation of ice on untreated roads will make
travel hazardous during the morning commute.

Precautionary/preparedness actions...

A Winter Weather Advisory means that periods of snow... sleet... or
freezing rain will cause travel difficulties. Be prepared for
slippery roads and limited visibilities... and use caution while
driving.



Kmd